Lug — FGE7581 — position and weather

sailwx.info

Track history (hours):
 
Tides and Currents Weather Stations Pressure Air Temp Water Temp Dewpoint Dewpoint Depression Visibility Wind Speed Wind Dir Waves Ship Positions

Lug

Last reported at 2017-Oct-09 17:18 UTC. Time now 2017-Nov-21 04:53 UTC.
Position N 47°29' W 003°06'.
Warning: this ship's position is 42 days out of date.

Length 10 m.

Type: Sailing vessel. MMSI: 227672930.

Date/timePositionNaut miles runAvg speedWind from/ knotsBaromVisibWave heightAir tempDewpointWater temp
2017-Oct-09 17:18N 47°29' W 003°06'0 1.0
2017-Oct-09 17:00N 47°30' W 003°06'2 3.5
2017-Oct-09 16:30N 47°29' W 003°03'3 5.2
2017-Oct-09 16:00N 47°31' W 003°01'2 3.4
2017-Oct-09 15:30N 47°31' W 002°58'3 5.4
2017-Oct-09 15:00N 47°28' W 002°56'2 3.5
2017-Oct-09 14:30N 47°27' W 002°57'2 4.7
2017-Oct-09 14:00N 47°28' W 003°00'2 4.4
2017-Oct-09 13:30N 47°29' W 003°03'2 3.8
2017-Oct-09 13:00N 47°29' W 003°06'0 0.0
2017-Oct-07 15:05N 47°29' W 003°06'0 0.0
2017-Oct-07 14:53N 47°29' W 003°06'0 0.0
2017-Oct-05 14:38N 47°29' W 003°06'0 0.0
2017-Oct-05 14:30N 47°29' W 003°06'11 2.7
2017-Oct-05 10:33N 47°21' W 003°16'0 2.5
2017-Oct-05 10:23N 47°22' W 003°16'2 5.9
2017-Oct-05 10:00N 47°24' W 003°17'3 5.2
2017-Oct-05 09:30N 47°25' W 003°13'3 6.2
2017-Oct-05 09:00N 47°26' W 003°09'3 6.8
2017-Oct-05 08:30N 47°27' W 003°04'2 4.3
2017-Oct-05 07:57N 47°29' W 003°06'0 0.0
2017-Oct-03 16:44N 47°29' W 003°06'0 1.2
2017-Oct-03 16:30N 47°29' W 003°06'2 3.1
2017-Oct-03 16:00N 47°28' W 003°04'1 2.8
2017-Oct-03 15:30N 47°27' W 003°05'3 4.0
2017-Oct-03 14:49N 47°24' W 003°07'4 5.3
2017-Oct-03 14:00N 47°28' W 003°04'1 1.8
2017-Oct-03 13:30N 47°29' W 003°05'1 1.9
2017-Oct-03 12:59N 47°29' W 003°06'  
Track history (hours):
 
Tides and Currents Weather Stations Pressure Air Temp Water Temp Dewpoint Dewpoint Depression Visibility Wind Speed Wind Dir Waves Ship Positions

Lug

Last reported at 2017-Oct-09 17:18 UTC. Time now 2017-Nov-21 04:53 UTC.
Position N 47°29' W 003°06'.
Warning: this ship's position is 42 days out of date.

Length 10 m.

Type: Sailing vessel. MMSI: 227672930.

Date/timePositionNaut miles runAvg speedWind from/ knotsBaromVisibWave heightAir tempDewpointWater temp
2017-Oct-09 17:18N 47°29' W 003°06'0 1.0
2017-Oct-09 17:00N 47°30' W 003°06'2 3.5
2017-Oct-09 16:30N 47°29' W 003°03'3 5.2
2017-Oct-09 16:00N 47°31' W 003°01'2 3.4
2017-Oct-09 15:30N 47°31' W 002°58'3 5.4
2017-Oct-09 15:00N 47°28' W 002°56'2 3.5
2017-Oct-09 14:30N 47°27' W 002°57'2 4.7
2017-Oct-09 14:00N 47°28' W 003°00'2 4.4
2017-Oct-09 13:30N 47°29' W 003°03'2 3.8
2017-Oct-09 13:00N 47°29' W 003°06'0 0.0
2017-Oct-07 15:05N 47°29' W 003°06'0 0.0
2017-Oct-07 14:53N 47°29' W 003°06'0 0.0
2017-Oct-05 14:38N 47°29' W 003°06'0 0.0
2017-Oct-05 14:30N 47°29' W 003°06'11 2.7
2017-Oct-05 10:33N 47°21' W 003°16'0 2.5
2017-Oct-05 10:23N 47°22' W 003°16'2 5.9
2017-Oct-05 10:00N 47°24' W 003°17'3 5.2
2017-Oct-05 09:30N 47°25' W 003°13'3 6.2
2017-Oct-05 09:00N 47°26' W 003°09'3 6.8
2017-Oct-05 08:30N 47°27' W 003°04'2 4.3
2017-Oct-05 07:57N 47°29' W 003°06'0 0.0
2017-Oct-03 16:44N 47°29' W 003°06'0 1.2
2017-Oct-03 16:30N 47°29' W 003°06'2 3.1
2017-Oct-03 16:00N 47°28' W 003°04'1 2.8
2017-Oct-03 15:30N 47°27' W 003°05'3 4.0
2017-Oct-03 14:49N 47°24' W 003°07'4 5.3
2017-Oct-03 14:00N 47°28' W 003°04'1 1.8
2017-Oct-03 13:30N 47°29' W 003°05'1 1.9
2017-Oct-03 12:59N 47°29' W 003°06'  

Dump ship's entire track history